createdAt,value
2023-05-15T00:00:58.922Z,99110.00
2023-05-15T00:03:39.853Z,99102.13
2023-05-15T00:06:17.762Z,99097.28
2023-05-15T00:09:05.522Z,99080.22
2023-05-15T00:11:43.211Z,99076.00
2023-05-15T00:14:11.497Z,99077.25
2023-05-15T00:16:38.555Z,99077.44
2023-05-15T00:19:16.755Z,99073.53
2023-05-15T00:21:55.835Z,99076.25
2023-05-15T00:24:25.276Z,99085.16
2023-05-15T00:27:01.141Z,99080.03
2023-05-15T00:29:42.013Z,99067.09
2023-05-15T00:32:09.070Z,99068.38
2023-05-15T00:34:36.085Z,99078.72
2023-05-15T00:37:11.171Z,99087.25
2023-05-15T00:40:01.701Z,99088.56
2023-05-15T00:42:49.868Z,99095.56
2023-05-15T00:45:27.038Z,99106.66
2023-05-15T00:48:01.620Z,99111.72
2023-05-15T00:50:32.796Z,99118.31
2023-05-15T00:53:14.190Z,99108.16
2023-05-15T00:55:51.056Z,99108.84
2023-05-15T00:58:23.816Z,99106.41
2023-05-15T01:01:08.658Z,99095.06
2023-05-15T01:03:47.760Z,99086.47
2023-05-15T01:06:17.470Z,99087.66
2023-05-15T01:08:53.890Z,99080.09
2023-05-15T01:11:38.274Z,99074.16
2023-05-15T01:14:13.793Z,99069.75
2023-05-15T01:16:55.803Z,99065.09
2023-05-15T01:19:24.134Z,99074.16
2023-05-15T01:22:48.688Z,99082.13
2023-05-15T01:25:34.384Z,99064.97
2023-05-15T01:28:13.950Z,99054.00
2023-05-15T01:30:48.662Z,99045.78
2023-05-15T01:33:28.311Z,99043.25
2023-05-15T01:36:14.422Z,99051.34
2023-05-15T01:38:57.103Z,99042.69
2023-05-15T01:41:59.022Z,99040.25
2023-05-15T01:44:39.295Z,99028.94
2023-05-15T01:47:20.373Z,99045.09
2023-05-15T01:49:55.439Z,99053.28
2023-05-15T01:52:53.201Z,99051.69
2023-05-15T01:55:27.147Z,99049.63
2023-05-15T01:58:03.951Z,99043.63
2023-05-15T02:00:42.738Z,99036.06
2023-05-15T02:03:21.207Z,99035.88
2023-05-15T02:06:01.787Z,99023.63
2023-05-15T02:08:38.220Z,99009.38
2023-05-15T02:11:08.905Z,99002.59
2023-05-15T02:13:46.946Z,98995.00
2023-05-15T02:16:22.873Z,98989.78
2023-05-15T02:19:00.989Z,98984.56
2023-05-15T02:21:35.775Z,98993.41
2023-05-15T02:24:09.002Z,99001.78
2023-05-15T02:26:44.661Z,99002.78
2023-05-15T02:29:28.874Z,98997.56
2023-05-15T02:32:46.831Z,99009.56
2023-05-15T02:35:31.611Z,99021.63
2023-05-15T02:38:15.826Z,99029.00
2023-05-15T02:40:52.032Z,99035.53
2023-05-15T02:43:42.601Z,99033.16
2023-05-15T02:46:21.939Z,99038.75
2023-05-15T02:48:49.558Z,99042.22
2023-05-15T02:51:25.277Z,99054.53
2023-05-15T02:54:08.984Z,99055.78
2023-05-15T02:56:39.373Z,99060.03
2023-05-15T02:59:06.580Z,99068.44
2023-05-15T03:01:52.155Z,99062.56
2023-05-15T03:04:22.384Z,99054.13
2023-05-15T03:06:49.787Z,99047.13
2023-05-15T03:09:24.415Z,99034.78
2023-05-15T03:12:05.805Z,99047.03
2023-05-15T03:14:34.406Z,99051.97
2023-05-15T03:17:18.017Z,99040.78
2023-05-15T03:19:50.371Z,99041.59
2023-05-15T03:22:17.568Z,99041.88
2023-05-15T03:24:47.141Z,99027.88
2023-05-15T03:27:30.429Z,99022.56
2023-05-15T03:29:57.448Z,99019.28
2023-05-15T03:32:24.486Z,99020.47
2023-05-15T03:34:51.535Z,99008.03
2023-05-15T03:37:26.957Z,99013.25
2023-05-15T03:40:02.296Z,99004.56
2023-05-15T03:42:49.039Z,98996.91
2023-05-15T03:45:28.086Z,98992.09
2023-05-15T03:48:05.083Z,98991.66
2023-05-15T03:50:37.665Z,98983.56
2023-05-15T03:53:04.929Z,98989.47
2023-05-15T03:55:46.180Z,98989.72
2023-05-15T03:58:15.616Z,98979.63
2023-05-15T04:00:53.637Z,98981.69
2023-05-15T04:03:37.877Z,98977.03
2023-05-15T04:06:13.237Z,98965.13
2023-05-15T04:08:40.989Z,98950.19
2023-05-15T04:11:36.250Z,98948.94
2023-05-15T04:14:11.513Z,98957.44
2023-05-15T04:16:49.896Z,98962.25
2023-05-15T04:19:28.568Z,98966.63
2023-05-15T04:22:05.467Z,98975.13
2023-05-15T04:24:44.070Z,98968.28
2023-05-15T04:27:28.535Z,98969.09
2023-05-15T04:29:59.052Z,98958.31
2023-05-15T04:32:27.749Z,98958.00
2023-05-15T04:35:00.973Z,98966.72
2023-05-15T04:37:36.469Z,98961.81
2023-05-15T04:40:18.086Z,98966.19
2023-05-15T04:42:48.111Z,98962.13
2023-05-15T04:45:25.974Z,98970.28
2023-05-15T04:48:01.624Z,98982.03
2023-05-15T04:50:31.517Z,98961.31
2023-05-15T04:53:12.391Z,98959.00
2023-05-15T04:55:43.817Z,98976.66
2023-05-15T04:58:30.513Z,98982.91
2023-05-15T05:01:11.115Z,98985.38
2023-05-15T05:04:06.125Z,98983.22
2023-05-15T05:06:43.896Z,98978.84
2023-05-15T05:09:27.797Z,98972.38
2023-05-15T05:12:09.983Z,98982.19
2023-05-15T05:14:50.426Z,99005.63
2023-05-15T05:17:25.461Z,99006.44
2023-05-15T05:20:22.388Z,99017.69
2023-05-15T05:23:19.069Z,99017.66
2023-05-15T05:26:00.813Z,99019.56
2023-05-15T05:28:49.462Z,99036.69
2023-05-15T05:31:27.839Z,99041.53
2023-05-15T05:34:11.782Z,99045.84
2023-05-15T05:36:57.708Z,99048.88
2023-05-15T05:39:38.129Z,99052.44
2023-05-15T05:42:29.863Z,99051.78
2023-05-15T05:45:16.083Z,99046.97
2023-05-15T05:48:07.709Z,99035.75
2023-05-15T05:50:58.624Z,99019.97
2023-05-15T05:53:41.833Z,99021.91
2023-05-15T05:56:44.326Z,99036.34
2023-05-15T05:59:25.121Z,99047.50
2023-05-15T06:02:16.816Z,99049.97
2023-05-15T06:04:57.466Z,99048.09
2023-05-15T06:07:37.650Z,99054.09
2023-05-15T06:10:18.545Z,99050.63
2023-05-15T06:13:02.233Z,99050.91
2023-05-15T06:15:37.602Z,99060.13
2023-05-15T06:18:21.331Z,99058.25
2023-05-15T06:21:02.644Z,99056.91
2023-05-15T06:23:57.497Z,99053.72
2023-05-15T06:26:43.424Z,99057.59
2023-05-15T06:29:28.844Z,99058.78
2023-05-15T06:32:09.707Z,99068.09
2023-05-15T06:34:56.358Z,99064.06
2023-05-15T06:37:37.677Z,99068.19
2023-05-15T06:40:21.407Z,99078.03
2023-05-15T06:42:59.219Z,99072.59
2023-05-15T06:45:44.602Z,99065.50
2023-05-15T06:48:23.421Z,99061.13
2023-05-15T06:51:03.802Z,99057.38
2023-05-15T06:53:47.026Z,99051.94
2023-05-15T06:56:30.344Z,99047.56
2023-05-15T06:59:10.973Z,99049.81
2023-05-15T07:01:46.573Z,99042.66
2023-05-15T07:04:31.778Z,99048.38
2023-05-15T07:07:22.906Z,99037.75
2023-05-15T07:09:55.431Z,99033.94
2023-05-15T07:12:37.498Z,99044.88
2023-05-15T07:15:25.951Z,99059.25
2023-05-15T07:17:58.620Z,99064.78
2023-05-15T07:20:37.025Z,99048.69
2023-05-15T07:23:15.579Z,99046.53
2023-05-15T07:25:59.776Z,99053.59
2023-05-15T07:28:43.059Z,99047.84
2023-05-15T07:31:29.133Z,99054.41
2023-05-15T07:34:12.737Z,99057.88
2023-05-15T07:37:01.796Z,99064.63
2023-05-15T07:39:53.266Z,99069.72
2023-05-15T07:42:45.173Z,99062.69
2023-05-15T07:45:34.809Z,99059.13
2023-05-15T07:48:18.583Z,99053.31
2023-05-15T07:51:02.653Z,99047.28
2023-05-15T07:53:50.798Z,99049.22
2023-05-15T07:56:40.194Z,99050.63
2023-05-15T07:59:21.426Z,99050.41
2023-05-15T08:02:07.803Z,99044.41
2023-05-15T08:04:49.313Z,99038.72
2023-05-15T08:07:33.092Z,99044.72
2023-05-15T08:10:09.848Z,99060.03
2023-05-15T08:12:46.198Z,99080.78
2023-05-15T08:15:32.439Z,99085.72
2023-05-15T08:18:24.944Z,99074.47
2023-05-15T08:21:13.604Z,99084.03
2023-05-15T08:23:57.792Z,99085.13
2023-05-15T08:26:36.143Z,99075.81
2023-05-15T08:29:35.973Z,99080.19
2023-05-15T08:32:17.901Z,99089.75
2023-05-15T08:34:58.593Z,99099.31
2023-05-15T08:37:43.279Z,99095.44
2023-05-15T08:43:16.072Z,99087.41
2023-05-15T08:45:59.923Z,99076.19
2023-05-15T08:48:45.097Z,99077.69
2023-05-15T08:51:32.687Z,99062.34
2023-05-15T08:54:15.735Z,99060.81
2023-05-15T08:57:02.767Z,99059.38
2023-05-15T08:59:49.535Z,99062.03
2023-05-15T09:02:27.856Z,99070.88
2023-05-15T09:05:11.719Z,99057.75
2023-05-15T09:07:57.732Z,99056.78
2023-05-15T09:10:37.286Z,99055.38
2023-05-15T09:13:18.575Z,99056.44
2023-05-15T09:16:12.190Z,99075.56
2023-05-15T09:18:50.169Z,99082.91
2023-05-15T09:21:31.968Z,99087.59
2023-05-15T09:24:41.990Z,99093.00
2023-05-15T09:27:28.632Z,99098.31
2023-05-15T09:30:14.836Z,99108.13
2023-05-15T09:32:56.673Z,99107.47
2023-05-15T09:35:50.812Z,99108.78
2023-05-15T09:38:34.645Z,99106.91
2023-05-15T09:41:30.804Z,99107.22
2023-05-15T09:44:09.347Z,99114.28
2023-05-15T09:46:56.842Z,99111.81
2023-05-15T09:49:43.547Z,99112.81
2023-05-15T09:52:32.985Z,99112.63
2023-05-15T09:55:17.542Z,99121.19
2023-05-15T09:58:15.670Z,99115.56
2023-05-15T10:00:59.315Z,99113.91
2023-05-15T10:03:40.737Z,99107.44
2023-05-15T10:06:23.471Z,99109.81
2023-05-15T10:09:10.289Z,99105.13
2023-05-15T10:11:58.617Z,99111.69
2023-05-15T10:14:51.659Z,99114.34
2023-05-15T10:17:36.928Z,99109.84
2023-05-15T10:20:46.006Z,99114.88
2023-05-15T10:23:30.361Z,99115.78
2023-05-15T10:26:16.637Z,99122.84
2023-05-15T10:29:01.108Z,99126.03
2023-05-15T10:31:43.777Z,99121.56
2023-05-15T10:34:27.904Z,99119.34
2023-05-15T10:37:18.812Z,99115.66
2023-05-15T10:40:01.583Z,99122.66
2023-05-15T10:42:52.006Z,99122.78
2023-05-15T10:45:34.980Z,99115.78
2023-05-15T10:48:12.360Z,99117.28
2023-05-15T10:50:58.395Z,99114.56
2023-05-15T10:53:36.740Z,99116.63
2023-05-15T10:56:18.477Z,99117.03
2023-05-15T10:59:09.932Z,99110.81
2023-05-15T11:01:56.063Z,99118.31
2023-05-15T11:04:44.193Z,99114.31
2023-05-15T11:07:27.343Z,99116.22
2023-05-15T11:10:03.665Z,99120.78
2023-05-15T11:13:01.431Z,99121.91
2023-05-15T11:15:56.840Z,99110.56
2023-05-15T11:18:40.086Z,99114.66
2023-05-15T11:21:20.891Z,99113.47
2023-05-15T11:24:08.526Z,99118.63
2023-05-15T11:26:56.100Z,99119.72
2023-05-15T11:29:37.001Z,99120.38
2023-05-15T11:32:59.124Z,99101.16
2023-05-15T11:35:43.580Z,99095.00
2023-05-15T11:38:47.657Z,99103.34
2023-05-15T11:41:39.353Z,99096.72
2023-05-15T11:44:22.760Z,99100.34
2023-05-15T11:47:17.575Z,99098.53
2023-05-15T11:50:02.066Z,99099.47
2023-05-15T11:52:48.787Z,99092.19
2023-05-15T11:55:28.898Z,99094.78
2023-05-15T11:58:19.122Z,99096.72
2023-05-15T12:00:59.847Z,99099.53
2023-05-15T12:03:44.817Z,99094.88
2023-05-15T12:06:23.298Z,99098.41
2023-05-15T12:09:11.766Z,99099.66
2023-05-15T12:11:56.836Z,99099.13
2023-05-15T12:14:35.369Z,99100.66
2023-05-15T12:17:38.881Z,99093.75
2023-05-15T12:20:49.464Z,99102.16
2023-05-15T12:23:35.185Z,99108.41
2023-05-15T12:26:11.838Z,99106.84
2023-05-15T12:29:01.703Z,99103.97
2023-05-15T12:31:50.832Z,99105.78
2023-05-15T12:34:39.720Z,99111.69
2023-05-15T12:37:22.980Z,99108.16
2023-05-15T12:40:14.653Z,99101.03
2023-05-15T12:42:59.805Z,99106.59
2023-05-15T12:45:43.591Z,99109.41
2023-05-15T12:48:30.788Z,99113.34
2023-05-15T12:51:20.672Z,99107.28
2023-05-15T12:54:02.120Z,99105.41
2023-05-15T12:56:45.524Z,99108.84
2023-05-15T12:59:21.534Z,99108.75
2023-05-15T13:02:04.911Z,99100.56
2023-05-15T13:04:55.162Z,99094.88
2023-05-15T13:07:40.114Z,99081.66
2023-05-15T13:10:33.019Z,99083.00
2023-05-15T13:13:14.696Z,99085.66
2023-05-15T13:16:02.893Z,99090.53
2023-05-15T13:18:46.604Z,99085.56
2023-05-15T13:21:38.332Z,99088.47
2023-05-15T13:24:16.223Z,99090.88
2023-05-15T13:27:05.923Z,99084.72
2023-05-15T13:29:44.467Z,99083.13
2023-05-15T13:32:32.628Z,99086.75
2023-05-15T13:35:25.643Z,99086.22
2023-05-15T13:38:00.902Z,99093.91
2023-05-15T13:40:49.632Z,99094.69
2023-05-15T13:43:21.849Z,99090.16
2023-05-15T13:46:00.197Z,99093.91
2023-05-15T13:48:48.710Z,99089.94
2023-05-15T13:51:26.612Z,99089.88
2023-05-15T13:54:06.750Z,99090.03
2023-05-15T13:56:48.514Z,99068.59
2023-05-15T13:59:35.565Z,99074.53
2023-05-15T14:02:18.765Z,99078.63
2023-05-15T14:05:07.304Z,99085.06
2023-05-15T14:07:48.004Z,99075.84
2023-05-15T14:10:36.405Z,99083.53
2023-05-15T14:13:17.926Z,99094.16
2023-05-15T14:16:04.760Z,99084.59
2023-05-15T14:18:54.394Z,99087.88
2023-05-15T14:21:29.035Z,99088.16
2023-05-15T14:24:08.758Z,99088.22
2023-05-15T14:26:49.767Z,99082.41
2023-05-15T14:29:35.828Z,99084.94
2023-05-15T14:32:22.067Z,99087.56
2023-05-15T14:35:03.423Z,99075.03
2023-05-15T14:37:44.033Z,99082.28
2023-05-15T14:40:27.528Z,99086.06
2023-05-15T14:43:12.287Z,99088.03
2023-05-15T14:45:53.304Z,99088.94
2023-05-15T14:48:36.491Z,99100.75
2023-05-15T14:51:20.195Z,99102.44
2023-05-15T14:53:58.119Z,99102.47
2023-05-15T14:56:43.537Z,99103.00
2023-05-15T14:59:28.762Z,99100.97
2023-05-15T15:02:26.997Z,99114.59
2023-05-15T15:05:13.033Z,99117.34
2023-05-15T15:08:26.796Z,99118.00
2023-05-15T15:11:16.080Z,99118.53
2023-05-15T15:14:05.216Z,99116.84
2023-05-15T15:16:46.126Z,99123.75
2023-05-15T15:19:23.982Z,99120.94
2023-05-15T15:22:06.107Z,99124.72
2023-05-15T15:24:46.827Z,99120.28
2023-05-15T15:27:19.700Z,99121.53
2023-05-15T15:30:00.738Z,99123.31
2023-05-15T15:32:38.829Z,99125.19
2023-05-15T15:35:22.095Z,99128.78
2023-05-15T15:38:05.445Z,99140.09
2023-05-15T15:40:57.224Z,99139.16
2023-05-15T15:43:38.471Z,99134.66
2023-05-15T15:46:17.054Z,99134.31
2023-05-15T15:49:04.507Z,99136.50
2023-05-15T15:51:52.191Z,99135.13
2023-05-15T15:54:38.545Z,99137.91
2023-05-15T15:57:30.243Z,99129.19
2023-05-15T16:00:07.802Z,99130.44
2023-05-15T16:02:56.690Z,99130.22
2023-05-15T16:05:34.805Z,99133.97
2023-05-15T16:08:24.163Z,99136.94
2023-05-15T16:11:10.767Z,99140.16
2023-05-15T16:13:55.277Z,99144.66
2023-05-15T16:16:39.189Z,99152.41
2023-05-15T16:19:28.378Z,99149.19
2023-05-15T16:22:13.084Z,99142.81
2023-05-15T16:24:54.130Z,99145.03
2023-05-15T16:27:34.878Z,99139.03
2023-05-15T16:30:14.781Z,99144.22
2023-05-15T16:32:58.786Z,99154.72
2023-05-15T16:35:36.842Z,99151.97
2023-05-15T16:38:24.105Z,99159.75
2023-05-15T16:41:05.112Z,99161.81
2023-05-15T16:43:50.788Z,99163.75
2023-05-15T16:46:31.400Z,99173.88
2023-05-15T16:49:12.564Z,99165.72
2023-05-15T16:51:54.555Z,99176.13
2023-05-15T16:54:44.822Z,99171.66
2023-05-15T16:57:27.585Z,99183.63
2023-05-15T17:00:12.734Z,99179.84
2023-05-15T17:02:58.431Z,99181.91
2023-05-15T17:05:38.192Z,99186.00
2023-05-15T17:08:13.122Z,99186.88
2023-05-15T17:10:47.975Z,99179.91
2023-05-15T17:13:27.716Z,99186.56
2023-05-15T17:16:14.111Z,99185.72
2023-05-15T17:18:59.949Z,99192.19
2023-05-15T17:21:46.158Z,99193.25
2023-05-15T17:24:50.052Z,99202.41
2023-05-15T17:27:35.739Z,99204.38
2023-05-15T17:30:18.847Z,99197.91
2023-05-15T17:32:59.513Z,99202.28
2023-05-15T17:35:44.544Z,99208.31
2023-05-15T17:38:28.010Z,99208.41
2023-05-15T17:41:07.762Z,99212.41
2023-05-15T17:43:56.972Z,99209.41
2023-05-15T17:46:40.532Z,99211.38
2023-05-15T17:49:27.278Z,99222.31
2023-05-15T17:52:10.268Z,99223.19
2023-05-15T17:54:56.994Z,99234.66
2023-05-15T17:57:37.813Z,99233.31
2023-05-15T18:00:24.594Z,99234.69
2023-05-15T18:03:18.524Z,99232.19
2023-05-15T18:06:06.739Z,99227.84
2023-05-15T18:08:53.533Z,99228.13
2023-05-15T18:11:42.427Z,99229.75
2023-05-15T18:14:27.651Z,99221.56
2023-05-15T18:17:09.629Z,99214.19
2023-05-15T18:19:56.064Z,99219.09
2023-05-15T18:22:48.272Z,99212.81
2023-05-15T18:25:26.275Z,99213.88
2023-05-15T18:28:19.656Z,99220.41
2023-05-15T18:30:56.867Z,99218.22
2023-05-15T18:33:43.108Z,99217.09
2023-05-15T18:36:26.290Z,99217.06
2023-05-15T18:39:05.990Z,99226.00
2023-05-15T18:41:46.797Z,99239.84
2023-05-15T18:44:27.504Z,99245.53
2023-05-15T18:47:15.126Z,99237.06
2023-05-15T18:50:00.911Z,99243.31
2023-05-15T18:52:36.803Z,99241.91
2023-05-15T18:55:23.126Z,99245.72
2023-05-15T18:58:12.668Z,99260.94
2023-05-15T19:00:57.560Z,99263.34
2023-05-15T19:03:52.258Z,99262.53
2023-05-15T19:06:34.980Z,99275.06
2023-05-15T19:09:18.821Z,99265.19
2023-05-15T19:12:08.144Z,99269.00
2023-05-15T19:14:56.411Z,99270.88
2023-05-15T19:17:38.972Z,99280.84
2023-05-15T19:20:21.718Z,99272.66
2023-05-15T19:23:08.912Z,99277.50
2023-05-15T19:26:01.084Z,99282.66
2023-05-15T19:28:39.550Z,99279.31
2023-05-15T19:31:32.042Z,99273.00
2023-05-15T19:34:15.656Z,99289.22
2023-05-15T19:37:02.857Z,99297.31
2023-05-15T19:39:41.083Z,99302.47
2023-05-15T19:42:34.768Z,99304.63
2023-05-15T19:45:10.829Z,99303.44
2023-05-15T19:48:04.376Z,99297.13
2023-05-15T19:50:41.591Z,99291.06
2023-05-15T19:53:19.633Z,99282.91
2023-05-15T19:56:08.857Z,99294.59
2023-05-15T19:58:47.089Z,99288.56
2023-05-15T20:01:28.504Z,99284.94
2023-05-15T20:04:26.128Z,99283.00
2023-05-15T20:07:20.966Z,99281.63
2023-05-15T20:10:01.922Z,99287.25
2023-05-15T20:12:39.676Z,99282.88
2023-05-15T20:15:18.503Z,99280.34
2023-05-15T20:17:53.733Z,99268.88
2023-05-15T20:20:36.822Z,99276.44
2023-05-15T20:23:17.765Z,99270.94
2023-05-15T20:26:00.228Z,99281.50
2023-05-15T20:28:50.753Z,99283.66
2023-05-15T20:31:35.570Z,99291.50
2023-05-15T20:34:18.923Z,99295.25
2023-05-15T20:37:02.184Z,99288.19
2023-05-15T20:39:51.785Z,99305.31
2023-05-15T20:42:27.908Z,99309.09
2023-05-15T20:45:12.626Z,99315.00
2023-05-15T20:47:52.835Z,99315.72
2023-05-15T20:50:41.724Z,99314.31
2023-05-15T20:53:20.004Z,99324.28
2023-05-15T20:56:03.368Z,99319.09
2023-05-15T20:58:43.830Z,99321.56
2023-05-15T21:01:28.160Z,99312.28
2023-05-15T21:04:08.315Z,99302.47
2023-05-15T21:06:56.252Z,99298.63
2023-05-15T21:09:42.075Z,99300.78
2023-05-15T21:12:37.232Z,99308.00
2023-05-15T21:15:20.632Z,99292.75
2023-05-15T21:18:07.443Z,99309.31
2023-05-15T21:20:53.256Z,99312.19
2023-05-15T21:23:36.581Z,99316.38
2023-05-15T21:26:22.381Z,99310.13
2023-05-15T21:29:00.715Z,99307.66
2023-05-15T21:31:53.437Z,99322.00
2023-05-15T21:34:32.542Z,99318.03
2023-05-15T21:37:15.731Z,99318.03
2023-05-15T21:39:58.395Z,99320.47
2023-05-15T21:42:39.085Z,99316.22
2023-05-15T21:45:22.353Z,99316.28
2023-05-15T21:48:08.354Z,99315.72
2023-05-15T21:50:50.782Z,99318.19
2023-05-15T21:53:39.374Z,99308.72
2023-05-15T21:56:20.558Z,99305.44
2023-05-15T21:59:01.768Z,99313.34
2023-05-15T22:01:49.168Z,99320.31
2023-05-15T22:04:33.206Z,99327.06
2023-05-15T22:07:15.738Z,99329.34
2023-05-15T22:10:07.045Z,99326.66
2023-05-15T22:13:03.940Z,99331.69
2023-05-15T22:15:45.321Z,99334.31
2023-05-15T22:18:28.516Z,99339.25
2023-05-15T22:21:09.280Z,99339.59
2023-05-15T22:23:49.998Z,99351.91
2023-05-15T22:26:34.947Z,99352.72
2023-05-15T22:29:24.828Z,99359.47
2023-05-15T22:32:05.576Z,99361.69
2023-05-15T22:34:43.835Z,99371.22
2023-05-15T22:37:29.732Z,99360.63
2023-05-15T22:40:11.513Z,99367.03
2023-05-15T22:42:54.195Z,99377.81
2023-05-15T22:45:44.030Z,99378.84
2023-05-15T22:48:28.294Z,99377.16
2023-05-15T22:51:13.949Z,99374.94
2023-05-15T22:54:14.136Z,99361.94
2023-05-15T22:56:55.503Z,99367.69
2023-05-15T22:59:35.825Z,99359.13
2023-05-15T23:02:14.969Z,99355.38
2023-05-15T23:04:55.162Z,99351.06
2023-05-15T23:08:12.766Z,99343.19
2023-05-15T23:10:53.375Z,99346.81
2023-05-15T23:13:39.303Z,99343.50
2023-05-15T23:16:15.121Z,99335.63
2023-05-15T23:19:07.522Z,99326.41
2023-05-15T23:21:54.543Z,99317.19
2023-05-15T23:24:35.032Z,99321.81
2023-05-15T23:27:16.800Z,99324.50
2023-05-15T23:29:54.282Z,99324.13
2023-05-15T23:32:50.405Z,99325.75
2023-05-15T23:35:33.341Z,99325.44
2023-05-15T23:38:17.069Z,99327.66
2023-05-15T23:41:02.754Z,99327.88
2023-05-15T23:43:49.790Z,99333.91
2023-05-15T23:46:35.286Z,99328.38
2023-05-15T23:49:19.761Z,99332.19
2023-05-15T23:52:04.997Z,99328.88
2023-05-15T23:54:48.268Z,99322.38
2023-05-15T23:57:32.874Z,99321.56
